Aeroporto :
LOGIN :

Iscrizione | Disclaimer

   EN    FR    IT 

 










Sommario :    VFR   VFR Marginale   IFR   IFR Intensivo   IFR Molto Intensivo
Visibilità : 
Base nubi : 
>= 8 km
>= 3000ft
5 / 8 km
1000 / 3000 ft
1500m / 5 km
500 / 1000 ft
800 / 1500m
200 / 500 ft
< 800m
< 200 ft
Simboli :   Temporali  Nebbia  Neve Forte  Precipitazioni Forti  Vento > 20 kt
SIGMETs :   Varie  Temporali  Ghiacco  Turbolenza  Onda orograficha  Ceneri Vulcaniche






- Altitudine del aeroporto : 122 ft
- Codice IATA : TXL


EDDT - Berlin Tegel Int.

ULTIMO METAR :
  • 150420Z 18009KT CAVOK 03/00 Q0999 NOSIG

METARs OBSOLETI :
  • 150350Z 19008KT CAVOK 03/00 Q0999 NOSIG
  • 150320Z 20008KT CAVOK 03/00 Q1000
  • 150250Z 21006KT CAVOK 03/00 Q1000
  • 150220Z 21007KT CAVOK 03/00 Q1000
  • 150150Z 23008KT CAVOK 03/01 Q1000

TAF TAF EDDT
Valido dal 15 a 00 ore il 16 a 00 ore UTC


142300Z 1500/1524 24014G25KT 9999 FEW035
BECMG 1500/1502 21010KT
TEMPO 1511/1514 23015G25KT



MetMap, La meteo Aeronautica in un colpo d'occhio ! - Copyright ORBIFLY Dicembre 2007 - Disclaimer

ORBIFLY MET'MAP TEAM :

Programmazione e sviluppo : Alexandra Zaïnal
Concezione : Baudouin d'Aumeries
Aiuto per la programmazione : Marc-Olivier Méhu
Supporto tecnico e logistico : Manuel Goepfert
Aiuto per la traduzione : Arnaldo La Scala

Contatto : metmap@orbifly.com




FONTI E CREDITI :

   NOAA